createdAt,value
2023-01-13T00:11:10.316Z,13.12
2023-01-13T00:41:13.195Z,12.82
2023-01-13T01:11:17.279Z,12.75
2023-01-13T01:41:20.210Z,13.14
2023-01-13T02:11:24.567Z,13.08
2023-01-13T02:41:27.500Z,12.63
2023-01-13T03:11:31.146Z,13.32
2023-01-13T03:41:34.182Z,13.25
2023-01-13T04:11:38.743Z,14.11
2023-01-13T04:41:41.665Z,15.08
2023-01-13T05:11:46.040Z,14.92
2023-01-13T05:41:48.916Z,14.08
2023-01-13T06:11:53.174Z,12.56
2023-01-13T06:41:55.988Z,13.80
2023-01-13T07:12:00.459Z,13.12
2023-01-13T07:42:03.265Z,15.78
2023-01-13T08:12:06.832Z,14.43
2023-01-13T08:42:09.895Z,13.77
2023-01-13T09:12:13.738Z,14.77
2023-01-13T09:42:16.568Z,16.01
2023-01-13T10:12:20.477Z,15.89
2023-01-13T10:42:23.501Z,14.99
2023-01-13T11:12:27.866Z,13.58
2023-01-13T11:42:30.715Z,16.94
2023-01-13T12:12:34.852Z,16.32
2023-01-13T12:42:37.778Z,16.12
2023-01-13T13:12:42.183Z,16.72
2023-01-13T13:42:45.035Z,12.87
2023-01-13T14:12:48.725Z,14.00
2023-01-13T14:42:51.675Z,15.08
2023-01-13T15:12:55.396Z,13.46
2023-01-13T15:42:58.362Z,13.91
2023-01-13T16:13:02.133Z,12.09
2023-01-13T16:43:05.197Z,11.54
2023-01-13T17:13:15.932Z,13.19
2023-01-13T17:43:19.702Z,12.82
2023-01-13T18:13:23.163Z,13.01
2023-01-13T18:43:26.516Z,11.94
2023-01-13T19:13:30.546Z,9.63
2023-01-13T19:43:33.440Z,9.35
2023-01-13T20:13:37.923Z,10.16
2023-01-13T20:43:40.804Z,11.85
2023-01-13T21:13:45.723Z,11.52
2023-01-13T21:43:49.055Z,8.93
2023-01-13T22:13:52.934Z,10.49
2023-01-13T22:43:56.366Z,10.71
2023-01-13T23:14:00.386Z,11.08
2023-01-13T23:44:03.848Z,10.69
